createdAt,value
2018-09-20T00:00:37.441Z,21.68
2018-09-20T00:01:42.993Z,21.68
2018-09-20T00:02:50.821Z,21.66
2018-09-20T00:03:53.619Z,21.66
2018-09-20T00:04:37.281Z,21.62
2018-09-20T00:05:36.678Z,21.61
2018-09-20T00:06:36.916Z,21.6
2018-09-20T00:07:36.679Z,21.59
2018-09-20T00:08:37.043Z,21.56
2018-09-20T00:09:36.724Z,21.56
2018-09-20T00:10:36.652Z,21.54
2018-09-20T00:11:36.647Z,21.53
2018-09-20T00:12:36.903Z,21.54
2018-09-20T00:13:36.675Z,21.53
2018-09-20T00:14:36.656Z,21.53
2018-09-20T00:15:37.185Z,21.53
2018-09-20T00:16:36.724Z,21.53
2018-09-20T00:17:36.777Z,21.52
2018-09-20T00:18:36.694Z,21.51
2018-09-20T00:19:36.993Z,21.49
2018-09-20T00:20:36.679Z,21.49
2018-09-20T00:21:36.636Z,21.48
2018-09-20T00:22:36.738Z,21.47
2018-09-20T00:23:36.673Z,21.44
2018-09-20T00:24:36.775Z,21.43
2018-09-20T00:25:36.916Z,21.41
2018-09-20T00:26:36.663Z,21.41
2018-09-20T00:27:36.748Z,21.39
2018-09-20T00:28:36.780Z,21.4
2018-09-20T00:29:36.654Z,21.37
2018-09-20T00:30:36.681Z,21.37
2018-09-20T00:31:36.646Z,21.39
2018-09-20T00:32:36.768Z,21.37
2018-09-20T00:33:36.989Z,21.39
2018-09-20T00:34:36.740Z,21.36
2018-09-20T00:35:36.790Z,21.36
2018-09-20T00:36:36.696Z,21.35
2018-09-20T00:37:36.635Z,21.32
2018-09-20T00:38:36.683Z,21.34
2018-09-20T00:39:36.712Z,21.34
2018-09-20T00:40:36.937Z,21.33
2018-09-20T00:41:36.715Z,21.35
2018-09-20T00:42:36.794Z,21.35
2018-09-20T00:43:36.706Z,21.35
2018-09-20T00:44:37.297Z,21.34
2018-09-20T00:45:36.880Z,21.31
2018-09-20T00:46:36.677Z,21.31
2018-09-20T00:47:36.658Z,21.34
2018-09-20T00:48:36.751Z,21.31
2018-09-20T00:49:36.804Z,21.3
2018-09-20T00:50:37.928Z,21.29
2018-09-20T00:51:36.850Z,21.29
2018-09-20T00:52:37.409Z,21.28
2018-09-20T00:53:36.678Z,21.28
2018-09-20T00:54:38.495Z,21.26
2018-09-20T00:55:36.769Z,21.27
2018-09-20T00:56:36.742Z,21.24
2018-09-20T00:57:36.657Z,21.24
2018-09-20T00:58:36.635Z,21.23
2018-09-20T00:59:36.782Z,21.23
2018-09-20T01:00:39.108Z,21.21
2018-09-20T01:01:36.677Z,21.21
2018-09-20T01:02:36.626Z,21.2
2018-09-20T01:03:36.783Z,21.19
2018-09-20T01:04:36.654Z,21.17
2018-09-20T01:05:46.955Z,21.17
2018-09-20T01:06:36.691Z,21.16
2018-09-20T01:07:37.860Z,21.16
2018-09-20T01:08:38.475Z,21.17
2018-09-20T01:09:38.524Z,21.17
2018-09-20T01:10:38.882Z,21.17
2018-09-20T01:11:36.659Z,21.17
2018-09-20T01:12:36.731Z,21.17
2018-09-20T01:13:36.735Z,21.16
2018-09-20T01:14:36.624Z,21.15
2018-09-20T01:15:36.693Z,21.11
2018-09-20T01:16:36.686Z,21.11
2018-09-20T01:17:36.650Z,21.11
2018-09-20T01:18:36.731Z,21.09
2018-09-20T01:19:36.737Z,21.1
2018-09-20T01:20:36.628Z,21.06
2018-09-20T01:21:36.654Z,21.06
2018-09-20T01:22:36.683Z,21.01
2018-09-20T01:23:36.659Z,21
2018-09-20T01:24:36.676Z,20.99
2018-09-20T01:25:36.660Z,20.99
2018-09-20T01:26:36.713Z,20.98
2018-09-20T01:27:36.649Z,20.98
2018-09-20T01:28:36.655Z,20.99
2018-09-20T01:29:36.834Z,20.99
2018-09-20T01:30:36.766Z,20.98
2018-09-20T01:31:36.913Z,20.98
2018-09-20T01:32:36.700Z,20.99
2018-09-20T01:33:36.679Z,20.99
2018-09-20T01:34:36.611Z,20.99
2018-09-20T01:35:36.942Z,20.98
2018-09-20T01:36:37.045Z,20.98
2018-09-20T01:37:36.627Z,20.99
2018-09-20T01:38:36.705Z,20.98
2018-09-20T01:39:36.701Z,20.97
2018-09-20T01:40:36.644Z,20.97
2018-09-20T01:41:36.712Z,20.98
2018-09-20T01:42:36.710Z,20.94
2018-09-20T01:43:36.719Z,20.95
2018-09-20T01:44:37.110Z,20.96
2018-09-20T01:45:36.713Z,20.93
2018-09-20T01:46:36.619Z,20.92
2018-09-20T01:47:36.656Z,20.89
2018-09-20T01:48:36.863Z,20.87
2018-09-20T01:49:36.696Z,20.86
2018-09-20T01:50:36.655Z,20.85
2018-09-20T01:51:36.782Z,20.82
2018-09-20T01:52:36.646Z,20.82
2018-09-20T01:53:36.718Z,20.8
2018-09-20T01:54:36.716Z,20.79
2018-09-20T01:55:36.654Z,20.78
2018-09-20T01:56:36.661Z,20.75
2018-09-20T01:57:36.691Z,20.77
2018-09-20T01:58:36.616Z,20.74
2018-09-20T01:59:36.735Z,20.72
2018-09-20T02:00:36.844Z,20.73
2018-09-20T02:01:36.645Z,20.7
2018-09-20T02:02:36.645Z,20.71
2018-09-20T02:03:36.691Z,20.68
2018-09-20T02:04:36.798Z,20.64
2018-09-20T02:05:36.812Z,20.66
2018-09-20T02:06:36.635Z,20.66
2018-09-20T02:07:36.843Z,20.64
2018-09-20T02:08:36.644Z,20.66
2018-09-20T02:09:36.634Z,20.66
2018-09-20T02:10:36.670Z,20.67
2018-09-20T02:11:36.804Z,20.66
2018-09-20T02:12:36.782Z,20.64
2018-09-20T02:13:38.863Z,20.67
2018-09-20T02:14:36.661Z,20.63
2018-09-20T02:15:36.635Z,20.64
2018-09-20T02:16:36.908Z,20.63
2018-09-20T02:17:36.721Z,20.61
2018-09-20T02:18:36.665Z,20.6
2018-09-20T02:19:36.744Z,20.59
2018-09-20T02:20:36.631Z,20.56
2018-09-20T02:21:36.767Z,20.57
2018-09-20T02:22:36.635Z,20.54
2018-09-20T02:23:36.616Z,20.52
2018-09-20T02:24:37.135Z,20.53
2018-09-20T02:25:36.654Z,20.51
2018-09-20T02:26:36.730Z,20.49
2018-09-20T02:27:36.612Z,20.48
2018-09-20T02:28:36.899Z,20.45
2018-09-20T02:29:36.631Z,20.45
2018-09-20T02:30:36.794Z,20.46
2018-09-20T02:31:36.645Z,20.43
2018-09-20T02:32:36.653Z,20.42
2018-09-20T02:33:36.717Z,20.42
2018-09-20T02:34:36.720Z,20.4
2018-09-20T02:35:36.701Z,20.41
2018-09-20T02:36:36.741Z,20.42
2018-09-20T02:37:36.715Z,20.41
2018-09-20T02:38:36.710Z,20.38
2018-09-20T02:39:36.630Z,20.39
2018-09-20T02:40:36.736Z,20.38
2018-09-20T02:41:36.705Z,20.39
2018-09-20T02:42:36.691Z,20.39
2018-09-20T02:43:36.666Z,20.38
2018-09-20T02:44:36.690Z,20.39
2018-09-20T02:45:36.645Z,20.38
2018-09-20T02:46:36.692Z,20.37
2018-09-20T02:47:36.628Z,20.36
2018-09-20T02:48:36.870Z,20.36
2018-09-20T02:49:36.610Z,20.34
2018-09-20T02:50:36.643Z,20.34
2018-09-20T02:51:36.626Z,20.33
2018-09-20T02:52:36.601Z,20.34
2018-09-20T02:53:36.654Z,20.33
2018-09-20T02:54:36.740Z,20.34
2018-09-20T02:55:36.702Z,20.33
2018-09-20T02:56:36.655Z,20.31
2018-09-20T02:57:36.614Z,20.32
2018-09-20T02:58:36.795Z,20.32
2018-09-20T02:59:36.636Z,20.31
2018-09-20T03:00:36.661Z,20.28
2018-09-20T03:01:36.693Z,20.3
2018-09-20T03:02:36.668Z,20.27
2018-09-20T03:03:36.904Z,20.26
2018-09-20T03:04:36.743Z,20.29
2018-09-20T03:05:36.876Z,20.25
2018-09-20T03:06:36.612Z,20.24
2018-09-20T03:07:36.764Z,20.25
2018-09-20T03:08:36.712Z,20.23
2018-09-20T03:09:36.622Z,20.24
2018-09-20T03:10:36.732Z,20.21
2018-09-20T03:11:36.671Z,20.19
2018-09-20T03:12:36.684Z,20.2
2018-09-20T03:13:36.837Z,20.16
2018-09-20T03:14:36.635Z,20.14
2018-09-20T03:15:36.696Z,20.14
2018-09-20T03:16:36.788Z,20.13
2018-09-20T03:17:36.677Z,20.11
2018-09-20T03:18:36.995Z,20.11
2018-09-20T03:19:36.643Z,20.07
2018-09-20T03:20:36.638Z,20.03
2018-09-20T03:21:37.437Z,20
2018-09-20T03:22:36.683Z,19.99
2018-09-20T03:23:37.330Z,19.98
2018-09-20T03:24:36.646Z,19.96
2018-09-20T03:25:36.686Z,19.94
2018-09-20T03:26:36.724Z,19.93
2018-09-20T03:27:36.707Z,19.91
2018-09-20T03:28:37.407Z,19.91
2018-09-20T03:29:36.706Z,19.88
2018-09-20T03:30:38.157Z,19.86
2018-09-20T03:31:38.192Z,19.87
2018-09-20T03:32:36.685Z,19.85
2018-09-20T03:33:36.699Z,19.85
2018-09-20T03:34:36.792Z,19.86
2018-09-20T03:35:36.637Z,19.83
2018-09-20T03:36:36.808Z,19.81
2018-09-20T03:37:36.649Z,19.79
2018-09-20T03:38:36.635Z,19.77
2018-09-20T03:39:36.807Z,19.76
2018-09-20T03:40:38.026Z,19.74
2018-09-20T03:41:36.663Z,19.7
2018-09-20T03:42:36.719Z,19.71
2018-09-20T03:43:36.665Z,19.7
2018-09-20T03:44:36.705Z,19.68
2018-09-20T03:45:36.934Z,19.66
2018-09-20T03:46:36.643Z,19.62
2018-09-20T03:47:36.661Z,19.63
2018-09-20T03:48:36.687Z,19.61
2018-09-20T03:49:36.722Z,19.57
2018-09-20T03:50:36.781Z,19.56
2018-09-20T03:51:36.880Z,19.57
2018-09-20T03:52:36.892Z,19.56
2018-09-20T03:53:36.626Z,19.56
2018-09-20T03:54:36.710Z,19.59
2018-09-20T03:55:36.715Z,19.6
2018-09-20T03:56:36.685Z,19.6
2018-09-20T03:57:36.782Z,19.61
2018-09-20T03:58:36.646Z,19.61
2018-09-20T03:59:36.654Z,19.62
2018-09-20T04:00:36.610Z,19.62
2018-09-20T04:01:36.775Z,19.6
2018-09-20T04:02:36.638Z,19.63
2018-09-20T04:03:36.657Z,19.63
2018-09-20T04:04:36.718Z,19.62
2018-09-20T04:05:36.625Z,19.62
2018-09-20T04:06:36.696Z,19.59
2018-09-20T04:07:36.600Z,19.63
2018-09-20T04:08:36.599Z,19.63
2018-09-20T04:09:37.502Z,19.61
2018-09-20T04:10:36.591Z,19.6
2018-09-20T04:11:36.602Z,19.61
2018-09-20T04:12:36.717Z,19.59
2018-09-20T04:13:36.616Z,19.61
2018-09-20T04:14:36.659Z,19.59
2018-09-20T04:15:36.670Z,19.59
2018-09-20T04:16:36.778Z,19.61
2018-09-20T04:17:36.712Z,19.59
2018-09-20T04:18:36.779Z,19.59
2018-09-20T04:19:36.568Z,19.57
2018-09-20T04:20:36.751Z,19.59
2018-09-20T04:21:36.680Z,19.6
2018-09-20T04:22:37.082Z,19.61
2018-09-20T04:23:36.763Z,19.58
2018-09-20T04:24:36.751Z,19.58
2018-09-20T04:25:36.800Z,19.57
2018-09-20T04:26:36.632Z,19.56
2018-09-20T04:27:36.647Z,19.58
2018-09-20T04:28:36.760Z,19.58
2018-09-20T04:29:36.842Z,19.58
2018-09-20T04:30:36.848Z,19.57
2018-09-20T04:31:37.072Z,19.54
2018-09-20T04:32:37.199Z,19.51
2018-09-20T04:33:36.807Z,19.5
2018-09-20T04:34:36.628Z,19.49
2018-09-20T04:35:36.780Z,19.47
2018-09-20T04:36:36.721Z,19.46
2018-09-20T04:37:36.642Z,19.46
2018-09-20T04:38:36.658Z,19.46
2018-09-20T04:39:37.141Z,19.45
2018-09-20T04:40:36.711Z,19.45
2018-09-20T04:41:36.636Z,19.44
2018-09-20T04:42:36.583Z,19.42
2018-09-20T04:43:36.589Z,19.4
2018-09-20T04:44:36.634Z,19.4
2018-09-20T04:45:36.702Z,19.39
2018-09-20T04:46:36.674Z,19.39
2018-09-20T04:47:36.661Z,19.39
2018-09-20T04:48:36.587Z,19.4
2018-09-20T04:49:36.707Z,19.4
2018-09-20T04:50:36.673Z,19.38
2018-09-20T04:51:36.636Z,19.39
2018-09-20T04:52:36.713Z,19.38
2018-09-20T04:53:36.621Z,19.37
2018-09-20T04:54:36.594Z,19.36
2018-09-20T04:55:36.640Z,19.35
2018-09-20T04:56:36.584Z,19.32
2018-09-20T04:57:36.622Z,19.32
2018-09-20T04:58:36.575Z,19.33
2018-09-20T04:59:36.705Z,19.28
2018-09-20T05:00:36.835Z,19.27
2018-09-20T05:01:36.667Z,19.27
2018-09-20T05:02:36.573Z,19.24
2018-09-20T05:03:36.961Z,19.21
2018-09-20T05:04:36.835Z,19.18
2018-09-20T05:05:36.586Z,19.18
2018-09-20T05:06:36.643Z,19.18
2018-09-20T05:07:36.612Z,19.19
2018-09-20T05:08:37.111Z,19.18
2018-09-20T05:09:37.565Z,19.18
2018-09-20T05:10:36.824Z,19.18
2018-09-20T05:11:36.639Z,19.18
2018-09-20T05:12:36.957Z,19.16
2018-09-20T05:13:36.614Z,19.15
2018-09-20T05:14:36.900Z,19.14
2018-09-20T05:15:36.642Z,19.15
2018-09-20T05:16:36.823Z,19.15
2018-09-20T05:17:36.672Z,19.16
2018-09-20T05:18:36.568Z,19.13
2018-09-20T05:19:36.630Z,19.12
2018-09-20T05:20:36.619Z,19.13
2018-09-20T05:21:36.586Z,19.11
2018-09-20T05:22:36.634Z,19.12
2018-09-20T05:23:36.640Z,19.08
2018-09-20T05:24:36.571Z,19.1
2018-09-20T05:25:36.590Z,19.1
2018-09-20T05:26:36.613Z,19.09
2018-09-20T05:27:36.711Z,19.07
2018-09-20T05:28:36.602Z,19.07
2018-09-20T05:29:36.622Z,19.09
2018-09-20T05:30:36.653Z,19.06
2018-09-20T05:31:36.676Z,19.06
2018-09-20T05:32:36.642Z,19.09
2018-09-20T05:33:36.668Z,19.1
2018-09-20T05:34:36.869Z,19.1
2018-09-20T05:35:37.746Z,19.15
2018-09-20T05:36:36.598Z,19.14
2018-09-20T05:37:36.573Z,19.15
2018-09-20T05:38:36.617Z,19.15
2018-09-20T05:39:36.772Z,19.14
2018-09-20T05:40:36.665Z,19.16
2018-09-20T05:41:38.075Z,19.17
2018-09-20T05:42:36.680Z,19.18
2018-09-20T05:43:37.608Z,19.19
2018-09-20T05:44:36.591Z,19.19
2018-09-20T05:45:36.771Z,19.21
2018-09-20T05:46:36.705Z,19.2
2018-09-20T05:47:36.652Z,19.19
2018-09-20T05:48:36.647Z,19.21
2018-09-20T05:49:36.582Z,19.19
2018-09-20T05:50:36.922Z,19.19
2018-09-20T05:51:36.628Z,19.19
2018-09-20T05:52:36.615Z,19.19
2018-09-20T05:53:36.560Z,19.21
2018-09-20T05:54:36.712Z,19.19
2018-09-20T05:55:36.819Z,19.21
2018-09-20T05:56:36.673Z,19.21
2018-09-20T05:57:36.613Z,19.19
2018-09-20T05:58:36.775Z,19.22
2018-09-20T05:59:36.819Z,19.21
2018-09-20T06:00:36.644Z,19.19
2018-09-20T06:01:36.655Z,19.19
2018-09-20T06:02:36.678Z,19.18
2018-09-20T06:03:36.655Z,19.17
2018-09-20T06:04:36.733Z,19.18
2018-09-20T06:05:37.121Z,19.17
2018-09-20T06:06:36.699Z,19.18
2018-09-20T06:07:36.602Z,19.18
2018-09-20T06:08:36.647Z,19.18
2018-09-20T06:09:36.615Z,19.21
2018-09-20T06:10:36.663Z,19.18
2018-09-20T06:11:37.290Z,19.19
2018-09-20T06:12:36.639Z,19.2
2018-09-20T06:13:36.592Z,19.19
2018-09-20T06:14:36.622Z,19.22
2018-09-20T06:15:36.700Z,19.22
2018-09-20T06:16:36.795Z,19.23
2018-09-20T06:17:36.695Z,19.26
2018-09-20T06:18:36.711Z,19.24
2018-09-20T06:19:36.659Z,19.26
2018-09-20T06:20:36.653Z,19.24
2018-09-20T06:21:36.742Z,19.27
2018-09-20T06:22:36.638Z,19.28
2018-09-20T06:23:36.639Z,19.27
2018-09-20T06:24:36.661Z,19.27
2018-09-20T06:25:36.876Z,19.29
2018-09-20T06:26:36.640Z,19.29
2018-09-20T06:27:39.028Z,19.29
2018-09-20T06:28:36.621Z,19.3
2018-09-20T06:29:36.717Z,19.3
2018-09-20T06:30:36.834Z,19.3
2018-09-20T06:31:36.579Z,19.3
2018-09-20T06:32:37.062Z,19.3
2018-09-20T06:33:36.860Z,19.3
2018-09-20T06:34:38.050Z,19.29
2018-09-20T06:35:36.813Z,19.29
2018-09-20T06:36:36.881Z,19.31
2018-09-20T06:37:36.566Z,19.31
2018-09-20T06:38:36.762Z,19.33
2018-09-20T06:39:36.548Z,19.31
2018-09-20T06:40:36.587Z,19.34
2018-09-20T06:41:36.579Z,19.35
2018-09-20T06:42:36.669Z,19.35
2018-09-20T06:43:36.619Z,19.37
2018-09-20T06:44:36.642Z,19.39
2018-09-20T06:45:36.738Z,19.42
2018-09-20T06:46:36.774Z,19.43
2018-09-20T06:47:36.621Z,19.44
2018-09-20T06:48:36.565Z,19.46
2018-09-20T06:49:36.582Z,19.48
2018-09-20T06:50:36.599Z,19.48
2018-09-20T06:51:36.575Z,19.47
2018-09-20T06:52:36.607Z,19.49
2018-09-20T06:53:36.589Z,19.51
2018-09-20T06:54:36.586Z,19.55
2018-09-20T06:55:36.695Z,19.56
2018-09-20T06:56:37.334Z,19.59
2018-09-20T06:57:36.606Z,19.61
2018-09-20T06:58:36.580Z,19.64
2018-09-20T06:59:36.631Z,19.67
2018-09-20T07:00:36.573Z,19.67
2018-09-20T07:01:36.552Z,19.73
2018-09-20T07:02:36.665Z,19.74
2018-09-20T07:03:36.677Z,19.79
2018-09-20T07:04:36.592Z,19.79
2018-09-20T07:05:36.696Z,19.8
2018-09-20T07:06:36.538Z,19.85
2018-09-20T07:07:36.685Z,19.87
2018-09-20T07:08:36.695Z,19.91
2018-09-20T07:09:36.626Z,19.92
2018-09-20T07:10:36.648Z,19.94
2018-09-20T07:11:36.579Z,19.98
2018-09-20T07:12:36.574Z,20
2018-09-20T07:13:37.019Z,20.04
2018-09-20T07:14:36.602Z,20.08
2018-09-20T07:15:36.582Z,20.1
2018-09-20T07:16:36.734Z,20.12
2018-09-20T07:17:36.706Z,20.16
2018-09-20T07:18:36.625Z,20.19
2018-09-20T07:19:36.589Z,20.19
2018-09-20T07:20:36.960Z,20.23
2018-09-20T07:21:36.792Z,20.24
2018-09-20T07:22:38.656Z,20.28
2018-09-20T07:23:36.754Z,20.3
2018-09-20T07:24:37.303Z,20.34
2018-09-20T07:25:37.352Z,20.36
2018-09-20T07:26:36.582Z,20.37
2018-09-20T07:27:36.696Z,20.41
2018-09-20T07:28:36.807Z,20.46
2018-09-20T07:29:36.619Z,20.48
2018-09-20T07:30:36.595Z,20.52
2018-09-20T07:31:49.291Z,20.54
2018-09-20T07:32:37.088Z,20.56
2018-09-20T07:33:36.762Z,20.6
2018-09-20T07:34:36.676Z,20.63
2018-09-20T07:35:36.569Z,20.69
2018-09-20T07:36:36.616Z,20.7
2018-09-20T07:37:37.665Z,20.75
2018-09-20T07:38:36.862Z,20.78
2018-09-20T07:39:36.518Z,20.81
2018-09-20T07:40:37.513Z,20.84
2018-09-20T07:41:36.694Z,20.88
2018-09-20T07:42:37.291Z,20.86
2018-09-20T07:43:37.638Z,20.9
2018-09-20T07:44:36.687Z,20.94
2018-09-20T07:45:36.635Z,20.95
2018-09-20T07:46:36.761Z,20.99
2018-09-20T07:47:36.617Z,20.99
2018-09-20T07:48:36.762Z,21.06
2018-09-20T07:49:36.728Z,21.08
2018-09-20T07:50:36.598Z,21.09
2018-09-20T07:51:36.532Z,21.13
2018-09-20T07:52:37.001Z,21.16
2018-09-20T07:53:37.184Z,21.18
2018-09-20T07:54:36.634Z,21.15
2018-09-20T07:55:36.930Z,21.13
2018-09-20T07:56:37.060Z,21.14
2018-09-20T07:57:36.595Z,21.15
2018-09-20T07:58:36.574Z,21.16
2018-09-20T07:59:36.528Z,21.12
2018-09-20T08:00:36.692Z,21.16
2018-09-20T08:01:37.626Z,21.17
2018-09-20T08:02:36.735Z,21.22
2018-09-20T08:03:36.598Z,21.27
2018-09-20T08:04:36.556Z,21.29
2018-09-20T08:05:36.826Z,21.34
2018-09-20T08:06:36.610Z,21.37
2018-09-20T08:07:36.584Z,21.41
2018-09-20T08:08:36.683Z,21.44
2018-09-20T08:09:36.601Z,21.48
2018-09-20T08:10:36.719Z,21.54
2018-09-20T08:11:36.596Z,21.56
2018-09-20T08:12:36.595Z,21.57
2018-09-20T08:13:36.696Z,21.61
2018-09-20T08:14:36.721Z,21.64
2018-09-20T08:15:36.649Z,21.69
2018-09-20T08:16:36.558Z,21.7
2018-09-20T08:17:36.641Z,21.7
2018-09-20T08:18:36.526Z,21.7
2018-09-20T08:19:36.540Z,21.75
2018-09-20T08:20:36.718Z,21.77
2018-09-20T08:21:37.373Z,21.84
2018-09-20T08:22:36.727Z,21.86
2018-09-20T08:23:36.626Z,21.93
2018-09-20T08:24:36.629Z,21.96
2018-09-20T08:25:36.545Z,22.02
2018-09-20T08:26:36.747Z,22.05
2018-09-20T08:27:36.929Z,22.11
2018-09-20T08:28:36.564Z,22.13
2018-09-20T08:29:36.565Z,22.17
2018-09-20T08:30:36.570Z,22.22
2018-09-20T08:31:36.544Z,22.25
2018-09-20T08:32:36.551Z,22.29
2018-09-20T08:33:36.674Z,22.29
2018-09-20T08:34:36.547Z,22.28
2018-09-20T08:35:36.548Z,22.31
2018-09-20T08:36:36.553Z,22.36
2018-09-20T08:37:37.329Z,22.42
2018-09-20T08:38:36.699Z,22.48
2018-09-20T08:39:36.549Z,22.46
2018-09-20T08:40:36.616Z,22.47
2018-09-20T08:41:36.527Z,22.49
2018-09-20T08:42:36.747Z,22.55
2018-09-20T08:43:36.681Z,22.59
2018-09-20T08:44:36.598Z,22.64
2018-09-20T08:45:36.710Z,22.7
2018-09-20T08:46:36.696Z,22.77
2018-09-20T08:47:36.679Z,22.82
2018-09-20T08:48:36.548Z,22.85
2018-09-20T08:49:36.540Z,22.93
2018-09-20T08:50:36.602Z,22.97
2018-09-20T08:51:36.539Z,23.03
2018-09-20T08:52:36.597Z,23.07
2018-09-20T08:53:36.839Z,23.15
2018-09-20T08:54:36.545Z,23.16
2018-09-20T08:55:36.598Z,23.21
2018-09-20T08:56:36.579Z,23.24
2018-09-20T08:57:36.712Z,23.29
2018-09-20T08:58:36.515Z,23.33
2018-09-20T08:59:36.554Z,23.37
2018-09-20T09:00:36.577Z,23.41
2018-09-20T09:01:36.537Z,23.41
2018-09-20T09:02:36.539Z,23.41
2018-09-20T09:03:36.561Z,23.39
2018-09-20T09:04:37.189Z,23.43
2018-09-20T09:05:36.508Z,23.47
2018-09-20T09:06:36.846Z,23.49
2018-09-20T09:07:36.562Z,23.51
2018-09-20T09:08:36.547Z,23.56
2018-09-20T09:09:36.891Z,23.61
2018-09-20T09:10:36.617Z,23.66
2018-09-20T09:11:38.391Z,23.72
2018-09-20T09:12:36.594Z,23.75
2018-09-20T09:13:37.000Z,23.78
2018-09-20T09:14:36.551Z,23.81
2018-09-20T09:15:36.897Z,23.83
2018-09-20T09:16:36.505Z,23.88
2018-09-20T09:17:36.725Z,23.9
2018-09-20T09:18:36.732Z,23.9
2018-09-20T09:19:37.259Z,23.93
2018-09-20T09:20:36.622Z,23.92
2018-09-20T09:21:36.568Z,23.96
2018-09-20T09:22:36.635Z,23.98
2018-09-20T09:23:36.661Z,24.01
2018-09-20T09:24:37.033Z,24.02
2018-09-20T09:25:36.598Z,24.06
2018-09-20T09:26:36.669Z,24.09
2018-09-20T09:27:36.538Z,24.15
2018-09-20T09:28:37.177Z,24.17
2018-09-20T09:29:36.655Z,24.2
2018-09-20T09:30:36.573Z,24.23
2018-09-20T09:31:36.528Z,24.25
2018-09-20T09:32:36.687Z,24.33
2018-09-20T09:33:36.645Z,24.38
2018-09-20T09:34:36.821Z,24.42
2018-09-20T09:35:36.747Z,24.49
2018-09-20T09:36:36.631Z,24.45
2018-09-20T09:37:37.805Z,24.45
2018-09-20T09:38:36.742Z,24.49
2018-09-20T09:39:36.775Z,24.55
2018-09-20T09:40:36.992Z,24.55
2018-09-20T09:41:36.676Z,24.54
2018-09-20T09:42:36.771Z,24.53
2018-09-20T09:43:36.679Z,24.56
2018-09-20T09:44:36.684Z,24.59
2018-09-20T09:45:36.702Z,24.59
2018-09-20T09:46:36.624Z,24.6
2018-09-20T09:47:36.809Z,24.67
2018-09-20T09:48:36.818Z,24.71
2018-09-20T09:49:36.843Z,24.75
2018-09-20T09:50:36.738Z,24.78
2018-09-20T09:51:36.563Z,24.79
2018-09-20T09:52:36.650Z,24.81
2018-09-20T09:53:36.913Z,24.82
2018-09-20T09:54:37.053Z,24.84
2018-09-20T09:55:36.526Z,24.94
2018-09-20T09:56:36.789Z,25
2018-09-20T09:57:36.737Z,25.04
2018-09-20T09:58:37.288Z,24.99
2018-09-20T09:59:37.030Z,24.97
2018-09-20T10:00:36.832Z,24.99
2018-09-20T10:01:36.591Z,25.07
2018-09-20T10:02:37.819Z,25.11
2018-09-20T10:03:36.569Z,25.13
2018-09-20T10:04:36.609Z,25.11
2018-09-20T10:05:36.795Z,25.09
2018-09-20T10:06:36.821Z,25.15
2018-09-20T10:07:36.752Z,25.2
2018-09-20T10:08:36.648Z,25.26
2018-09-20T10:09:36.880Z,25.34
2018-09-20T10:10:36.671Z,25.4
2018-09-20T10:11:36.589Z,25.43
2018-09-20T10:12:36.556Z,25.48
2018-09-20T10:13:37.276Z,25.56
2018-09-20T10:14:36.700Z,25.57
2018-09-20T10:15:36.564Z,25.64
2018-09-20T10:16:36.542Z,25.65
2018-09-20T10:17:36.637Z,25.69
2018-09-20T10:18:36.480Z,25.67
2018-09-20T10:19:36.753Z,25.69
2018-09-20T10:20:36.619Z,25.77
2018-09-20T10:21:36.743Z,25.82
2018-09-20T10:22:36.842Z,25.83
2018-09-20T10:23:37.100Z,25.84
2018-09-20T10:24:36.574Z,25.86
2018-09-20T10:25:36.840Z,25.85
2018-09-20T10:26:36.540Z,25.87
2018-09-20T10:27:36.538Z,25.89
2018-09-20T10:28:36.552Z,25.93
2018-09-20T10:29:36.795Z,25.97
2018-09-20T10:30:36.608Z,26.01
2018-09-20T10:31:36.576Z,26.07
2018-09-20T10:32:36.528Z,26.14
2018-09-20T10:33:36.591Z,26.14
2018-09-20T10:34:36.931Z,26.18
2018-09-20T10:35:36.743Z,26.2
2018-09-20T10:36:36.717Z,26.27
2018-09-20T10:37:36.708Z,26.28
2018-09-20T10:38:36.803Z,26.32
2018-09-20T10:39:37.080Z,26.38
2018-09-20T10:40:36.670Z,26.4
2018-09-20T10:41:36.863Z,26.4
2018-09-20T10:42:36.563Z,26.44
2018-09-20T10:43:36.885Z,26.46
2018-09-20T10:44:37.039Z,26.51
2018-09-20T10:45:36.624Z,26.53
2018-09-20T10:46:36.713Z,26.54
2018-09-20T10:47:36.500Z,26.58
2018-09-20T10:48:36.608Z,26.63
2018-09-20T10:49:36.510Z,26.68
2018-09-20T10:50:36.878Z,26.71
2018-09-20T10:51:36.594Z,26.69
2018-09-20T10:52:36.649Z,26.65
2018-09-20T10:53:36.690Z,26.67
2018-09-20T10:54:37.453Z,26.65
2018-09-20T10:55:36.879Z,26.63
2018-09-20T10:56:36.534Z,26.65
2018-09-20T10:57:36.689Z,26.71
2018-09-20T10:58:36.725Z,26.71
2018-09-20T10:59:36.907Z,26.77
2018-09-20T11:00:36.825Z,26.76
2018-09-20T11:01:36.543Z,26.73
2018-09-20T11:02:36.513Z,26.76
2018-09-20T11:03:36.539Z,26.75
2018-09-20T11:04:36.565Z,26.77
2018-09-20T11:05:36.686Z,26.8
2018-09-20T11:06:37.234Z,26.8
2018-09-20T11:07:36.641Z,26.84
2018-09-20T11:08:36.572Z,26.86
2018-09-20T11:09:36.561Z,26.87
2018-09-20T11:10:37.598Z,26.89
2018-09-20T11:11:36.488Z,26.84
2018-09-20T11:12:36.673Z,26.83
2018-09-20T11:13:36.517Z,26.78
2018-09-20T11:14:36.551Z,26.77
2018-09-20T11:15:36.729Z,26.78
2018-09-20T11:16:36.730Z,26.86
2018-09-20T11:17:36.682Z,26.86
2018-09-20T11:18:36.617Z,26.82
2018-09-20T11:19:37.243Z,26.89
2018-09-20T11:20:36.843Z,26.89
2018-09-20T11:21:36.522Z,26.89
2018-09-20T11:22:36.736Z,26.92
2018-09-20T11:23:36.657Z,26.95
2018-09-20T11:24:36.639Z,27.04
2018-09-20T11:25:37.917Z,27.08
2018-09-20T11:26:36.632Z,27.11
2018-09-20T11:27:36.545Z,27.21
2018-09-20T11:28:36.583Z,27.23
2018-09-20T11:29:36.672Z,27.23
2018-09-20T11:30:36.629Z,27.26
2018-09-20T11:31:36.537Z,27.26
2018-09-20T11:32:36.522Z,27.23
2018-09-20T11:33:36.585Z,27.27
2018-09-20T11:34:36.733Z,27.3
2018-09-20T11:35:36.682Z,27.36
2018-09-20T11:36:36.494Z,27.35
2018-09-20T11:37:36.756Z,27.38
2018-09-20T11:38:36.529Z,27.42
2018-09-20T11:39:36.662Z,27.41
2018-09-20T11:40:36.793Z,27.45
2018-09-20T11:41:36.651Z,27.47
2018-09-20T11:42:36.678Z,27.47
2018-09-20T11:43:36.522Z,27.48
2018-09-20T11:44:36.496Z,27.55
2018-09-20T11:45:36.595Z,27.58
2018-09-20T11:46:37.013Z,27.61
2018-09-20T11:47:36.549Z,27.64
2018-09-20T11:48:36.716Z,27.58
2018-09-20T11:49:41.553Z,27.57
2018-09-20T11:50:41.544Z,27.55
2018-09-20T11:51:36.800Z,27.55
2018-09-20T11:52:36.864Z,27.59
2018-09-20T11:53:36.750Z,27.61
2018-09-20T11:54:36.765Z,27.63
2018-09-20T11:55:36.779Z,27.65
2018-09-20T11:56:36.491Z,27.67
2018-09-20T11:57:36.890Z,27.63
2018-09-20T11:58:36.477Z,27.6
2018-09-20T11:59:37.127Z,27.62
2018-09-20T12:00:36.604Z,27.64
2018-09-20T12:01:36.524Z,27.69
2018-09-20T12:02:36.653Z,27.63
2018-09-20T12:03:36.562Z,27.57
2018-09-20T12:04:36.809Z,27.57
2018-09-20T12:05:36.748Z,27.6
2018-09-20T12:06:36.656Z,27.65
2018-09-20T12:07:36.469Z,27.62
2018-09-20T12:08:36.505Z,27.62
2018-09-20T12:09:36.666Z,27.63
2018-09-20T12:10:36.773Z,27.62
2018-09-20T12:11:36.657Z,27.59
2018-09-20T12:12:36.587Z,27.58
2018-09-20T12:13:36.527Z,27.58
2018-09-20T12:14:37.340Z,27.59
2018-09-20T12:15:36.738Z,27.62
2018-09-20T12:16:36.654Z,27.56
2018-09-20T12:17:36.564Z,27.55
2018-09-20T12:18:36.681Z,27.59
2018-09-20T12:19:36.606Z,27.61
2018-09-20T12:20:36.544Z,27.67
2018-09-20T12:21:36.637Z,27.73
2018-09-20T12:22:36.691Z,27.78
2018-09-20T12:23:36.730Z,27.77
2018-09-20T12:24:36.759Z,27.79
2018-09-20T12:25:36.899Z,27.83
2018-09-20T12:26:36.541Z,27.86
2018-09-20T12:27:36.576Z,27.89
2018-09-20T12:28:36.585Z,27.9
2018-09-20T12:29:36.484Z,27.93
2018-09-20T12:30:36.526Z,27.93
2018-09-20T12:31:37.347Z,27.95
2018-09-20T12:32:36.868Z,27.94
2018-09-20T12:33:36.550Z,27.99
2018-09-20T12:34:36.514Z,27.99
2018-09-20T12:35:37.873Z,28.02
2018-09-20T12:36:36.563Z,28.05
2018-09-20T12:37:36.675Z,28.05
2018-09-20T12:38:37.341Z,28.01
2018-09-20T12:39:36.773Z,28.05
2018-09-20T12:40:36.869Z,28.02
2018-09-20T12:41:36.552Z,28.06
2018-09-20T12:42:36.872Z,28.08
2018-09-20T12:43:36.502Z,28.12
2018-09-20T12:44:36.580Z,28.07
2018-09-20T12:45:36.906Z,28.13
2018-09-20T12:46:36.718Z,28.15
2018-09-20T12:47:36.540Z,28.15
2018-09-20T12:48:36.782Z,28.18
2018-09-20T12:49:36.667Z,28.21
2018-09-20T12:50:36.552Z,28.24
2018-09-20T12:51:36.692Z,28.25
2018-09-20T12:52:36.626Z,28.22
2018-09-20T12:53:36.515Z,28.23
2018-09-20T12:54:37.105Z,28.27
2018-09-20T12:55:36.862Z,28.28